createdAt,value
2023-01-25T00:01:53.414Z,102510.38
2023-01-25T00:04:59.358Z,102508.13
2023-01-25T00:08:06.738Z,102504.16
2023-01-25T00:11:11.815Z,102504.09
2023-01-25T00:14:17.789Z,102496.46
2023-01-25T00:17:23.678Z,102498.30
2023-01-25T00:20:30.360Z,102494.33
2023-01-25T00:23:36.301Z,102494.13
2023-01-25T00:26:44.677Z,102488.19
2023-01-25T00:29:51.155Z,102480.02
2023-01-25T00:33:08.285Z,102491.00
2023-01-25T00:36:14.618Z,102491.95
2023-01-25T00:39:20.737Z,102489.45
2023-01-25T00:42:28.337Z,102492.23
2023-01-25T00:45:34.475Z,102486.59
2023-01-25T00:48:42.530Z,102481.63
2023-01-25T00:51:48.497Z,102478.36
2023-01-25T00:54:53.949Z,102477.28
2023-01-25T00:57:59.951Z,102465.61
2023-01-25T01:01:07.885Z,102467.45
2023-01-25T01:04:13.383Z,102470.41
2023-01-25T01:07:18.528Z,102466.31
2023-01-25T01:10:24.303Z,102458.78
2023-01-25T01:13:29.044Z,102455.39
2023-01-25T01:16:36.152Z,102459.56
2023-01-25T01:19:41.533Z,102456.73
2023-01-25T01:22:47.900Z,102463.94
2023-01-25T01:25:53.913Z,102462.12
2023-01-25T01:29:00.417Z,102458.61
2023-01-25T01:32:08.014Z,102468.43
2023-01-25T01:35:14.140Z,102465.61
2023-01-25T01:38:22.310Z,102469.44
2023-01-25T01:41:28.300Z,102473.81
2023-01-25T01:44:36.011Z,102469.44
2023-01-25T01:47:56.689Z,102474.39
2023-01-25T01:51:04.907Z,102465.67
2023-01-25T01:54:31.539Z,102464.70
2023-01-25T01:57:43.587Z,102462.27
2023-01-25T02:00:53.570Z,102457.64
2023-01-25T02:03:58.821Z,102451.92
2023-01-25T02:07:14.797Z,102448.80
2023-01-25T02:10:24.351Z,102445.58
2023-01-25T02:13:31.140Z,102446.40
2023-01-25T02:16:40.611Z,102441.08
2023-01-25T02:20:21.482Z,102446.55
2023-01-25T02:23:47.575Z,102451.70
2023-01-25T02:26:54.837Z,102445.21
2023-01-25T02:29:59.755Z,102449.25
2023-01-25T02:33:05.312Z,102443.41
2023-01-25T02:36:27.796Z,102449.83
2023-01-25T02:39:34.540Z,102445.96
2023-01-25T02:42:44.181Z,102448.92
2023-01-25T02:45:50.347Z,102438.91
2023-01-25T02:48:57.589Z,102441.02
2023-01-25T02:52:05.549Z,102440.88
2023-01-25T02:55:11.671Z,102426.95
2023-01-25T02:58:19.507Z,102420.53
2023-01-25T03:01:26.038Z,102422.02
2023-01-25T03:04:32.227Z,102428.33
2023-01-25T03:07:38.882Z,102428.88
2023-01-25T03:10:44.824Z,102426.48
2023-01-25T03:13:51.572Z,102419.28
2023-01-25T03:16:57.947Z,102420.89
2023-01-25T03:20:04.995Z,102420.19
2023-01-25T03:23:11.750Z,102418.84
2023-01-25T03:26:30.829Z,102422.36
2023-01-25T03:29:39.994Z,102418.12
2023-01-25T03:32:46.914Z,102426.80
2023-01-25T03:35:53.929Z,102427.32
2023-01-25T03:38:59.695Z,102425.70
2023-01-25T03:42:06.518Z,102434.13
2023-01-25T03:45:13.506Z,102437.00
2023-01-25T03:48:19.665Z,102434.56
2023-01-25T03:51:25.826Z,102433.22
2023-01-25T03:54:32.065Z,102432.17
2023-01-25T03:57:39.405Z,102432.84
2023-01-25T04:00:46.682Z,102439.34
2023-01-25T04:03:51.398Z,102435.41
2023-01-25T04:06:57.979Z,102442.19
2023-01-25T04:10:03.702Z,102444.81
2023-01-25T04:13:12.328Z,102445.64
2023-01-25T04:16:21.729Z,102444.50
2023-01-25T04:19:32.078Z,102451.11
2023-01-25T04:22:39.844Z,102445.64
2023-01-25T04:25:45.527Z,102443.59
2023-01-25T04:28:51.613Z,102445.46
2023-01-25T04:31:58.539Z,102453.91
2023-01-25T04:35:04.894Z,102443.27
2023-01-25T04:38:11.244Z,102450.73
2023-01-25T04:41:16.214Z,102446.87
2023-01-25T04:44:21.963Z,102452.96
2023-01-25T04:47:29.909Z,102455.72
2023-01-25T04:50:36.806Z,102456.48
2023-01-25T04:53:42.710Z,102452.25
2023-01-25T04:56:49.046Z,102452.06
2023-01-25T04:59:54.955Z,102455.09
2023-01-25T05:03:00.090Z,102459.44
2023-01-25T05:06:07.807Z,102460.34
2023-01-25T05:09:13.058Z,102460.78
2023-01-25T05:12:21.175Z,102459.26
2023-01-25T05:15:31.144Z,102462.78
2023-01-25T05:18:47.997Z,102461.70
2023-01-25T05:22:03.769Z,102470.55
2023-01-25T05:25:14.379Z,102474.95
2023-01-25T05:28:21.090Z,102471.13
2023-01-25T05:31:36.572Z,102471.06
2023-01-25T05:34:31.217Z,102477.28
2023-01-25T05:37:36.905Z,102472.28
2023-01-25T05:40:44.362Z,102477.34
2023-01-25T05:43:49.430Z,102475.72
2023-01-25T05:46:57.285Z,102477.23
2023-01-25T05:50:03.173Z,102480.75
2023-01-25T05:53:29.005Z,102482.16
2023-01-25T05:56:34.602Z,102473.55
2023-01-25T05:59:42.404Z,102472.02
2023-01-25T06:02:50.684Z,102462.92
2023-01-25T06:05:57.421Z,102465.55
2023-01-25T06:09:05.998Z,102476.25
2023-01-25T06:12:13.767Z,102471.19
2023-01-25T06:15:21.463Z,102478.23
2023-01-25T06:18:30.601Z,102474.39
2023-01-25T06:21:39.833Z,102473.05
2023-01-25T06:24:46.744Z,102474.83
2023-01-25T06:27:53.104Z,102466.61
2023-01-25T06:30:59.823Z,102468.09
2023-01-25T06:34:09.838Z,102465.27
2023-01-25T06:37:16.169Z,102476.61
2023-01-25T06:40:22.067Z,102468.72
2023-01-25T06:43:28.256Z,102473.09
2023-01-25T06:46:34.732Z,102470.53
2023-01-25T06:49:40.570Z,102473.75
2023-01-25T06:52:44.830Z,102468.94
2023-01-25T06:55:52.842Z,102458.09
2023-01-25T06:58:59.312Z,102460.53
2023-01-25T07:02:05.657Z,102453.55
2023-01-25T07:05:15.605Z,102450.97
2023-01-25T07:08:21.639Z,102444.86
2023-01-25T07:11:31.141Z,102444.27
2023-01-25T07:14:36.733Z,102452.23
2023-01-25T07:17:41.535Z,102443.05
2023-01-25T07:20:51.073Z,102440.23
2023-01-25T07:23:58.057Z,102435.95
2023-01-25T07:27:08.889Z,102434.20
2023-01-25T07:30:14.347Z,102434.63
2023-01-25T07:33:19.267Z,102432.68
2023-01-25T07:36:51.379Z,102436.39
2023-01-25T07:39:59.157Z,102430.52
2023-01-25T07:43:06.215Z,102432.90
2023-01-25T07:46:21.633Z,102430.06
2023-01-25T07:49:26.757Z,102419.80
2023-01-25T07:52:33.580Z,102427.14
2023-01-25T07:55:40.522Z,102423.31
2023-01-25T07:58:48.722Z,102421.02
2023-01-25T08:01:54.532Z,102412.63
2023-01-25T08:05:02.900Z,102410.61
2023-01-25T08:08:09.237Z,102415.19
2023-01-25T08:11:26.560Z,102423.22
2023-01-25T08:14:33.453Z,102418.84
2023-01-25T08:17:41.746Z,102421.27
2023-01-25T08:20:48.826Z,102427.76
2023-01-25T08:24:01.465Z,102422.89
2023-01-25T08:27:08.737Z,102427.83
2023-01-25T08:30:14.677Z,102427.50
2023-01-25T08:33:20.767Z,102429.03
2023-01-25T08:36:33.406Z,102438.94
2023-01-25T08:39:39.412Z,102437.45
2023-01-25T08:42:46.151Z,102433.55
2023-01-25T08:45:51.108Z,102434.55
2023-01-25T08:48:56.537Z,102426.37
2023-01-25T08:52:02.215Z,102424.39
2023-01-25T08:55:08.124Z,102424.39
2023-01-25T08:58:15.409Z,102415.05
2023-01-25T09:01:45.771Z,102415.51
2023-01-25T09:04:53.039Z,102415.79
2023-01-25T09:08:01.191Z,102410.86
2023-01-25T09:11:08.916Z,102410.17
2023-01-25T09:14:15.842Z,102399.44
2023-01-25T09:17:23.808Z,102408.77
2023-01-25T09:20:33.135Z,102406.25
2023-01-25T09:23:50.702Z,102404.77
2023-01-25T09:26:59.930Z,102399.20
2023-01-25T09:30:13.519Z,102392.09
2023-01-25T09:33:16.083Z,102390.74
2023-01-25T09:36:24.714Z,102378.50
2023-01-25T09:39:31.552Z,102377.23
2023-01-25T09:43:10.896Z,102379.55
2023-01-25T09:46:21.328Z,102367.02
2023-01-25T09:49:47.378Z,102362.85
2023-01-25T09:53:33.545Z,102358.13
2023-01-25T09:56:44.286Z,102342.42
2023-01-25T09:59:49.814Z,102347.50
2023-01-25T10:03:11.834Z,102342.43
2023-01-25T10:06:16.926Z,102341.39
2023-01-25T10:09:58.416Z,102337.95
2023-01-25T10:13:06.757Z,102336.44
2023-01-25T10:16:28.527Z,102333.65
2023-01-25T10:19:48.157Z,102330.06
2023-01-25T10:23:02.919Z,102327.91
2023-01-25T10:26:15.991Z,102324.34
2023-01-25T10:29:31.407Z,102319.06
2023-01-25T10:32:51.136Z,102317.62
2023-01-25T10:35:53.459Z,102313.42
2023-01-25T10:39:03.581Z,102312.70
2023-01-25T10:42:16.966Z,102303.84
2023-01-25T10:45:28.193Z,102296.34
2023-01-25T10:48:40.702Z,102296.30
2023-01-25T10:51:49.496Z,102293.46
2023-01-25T10:54:57.382Z,102289.94
2023-01-25T10:58:11.220Z,102289.48
2023-01-25T11:01:18.376Z,102290.29
2023-01-25T11:04:46.560Z,102282.55
2023-01-25T11:07:53.531Z,102278.58
2023-01-25T11:10:58.052Z,102285.39
2023-01-25T11:14:03.942Z,102279.23
2023-01-25T11:17:10.904Z,102280.37
2023-01-25T11:20:33.787Z,102271.70
2023-01-25T11:23:41.593Z,102268.05
2023-01-25T11:26:50.368Z,102252.38
2023-01-25T11:29:57.845Z,102259.44
2023-01-25T11:33:03.211Z,102253.99
2023-01-25T11:36:42.048Z,102254.20
2023-01-25T11:40:25.654Z,102256.09
2023-01-25T11:43:58.769Z,102250.75
2023-01-25T11:47:57.110Z,102248.25
2023-01-25T11:51:13.849Z,102250.66
2023-01-25T11:54:44.456Z,102242.72
2023-01-25T11:58:16.848Z,102249.40
2023-01-25T12:01:51.191Z,102242.18
2023-01-25T12:05:26.992Z,102245.35
2023-01-25T12:08:47.656Z,102250.38
2023-01-25T12:12:14.210Z,102244.69
2023-01-25T12:15:34.988Z,102243.97
2023-01-25T12:18:51.016Z,102239.11
2023-01-25T12:22:21.989Z,102238.80
2023-01-25T12:25:49.880Z,102248.45
2023-01-25T12:29:18.233Z,102247.73
2023-01-25T12:32:48.147Z,102243.84
2023-01-25T12:36:09.001Z,102238.30
2023-01-25T12:39:29.374Z,102240.53
2023-01-25T12:42:40.511Z,102241.19
2023-01-25T12:45:51.982Z,102233.55
2023-01-25T12:49:01.781Z,102231.56
2023-01-25T12:52:07.893Z,102224.64
2023-01-25T12:55:19.791Z,102224.42
2023-01-25T12:58:59.848Z,102221.62
2023-01-25T13:02:31.288Z,102212.66
2023-01-25T13:06:05.448Z,102216.93
2023-01-25T13:09:31.233Z,102210.82
2023-01-25T13:12:37.263Z,102207.92
2023-01-25T13:15:57.070Z,102203.65
2023-01-25T13:19:05.172Z,102202.13
2023-01-25T13:22:12.685Z,102203.98
2023-01-25T13:25:21.679Z,102201.28
2023-01-25T13:28:57.556Z,102195.70
2023-01-25T13:32:04.006Z,102192.03
2023-01-25T13:35:12.145Z,102181.63
2023-01-25T13:38:24.318Z,102182.77
2023-01-25T13:41:34.632Z,102187.91
2023-01-25T13:44:50.792Z,102184.44
2023-01-25T13:47:57.477Z,102186.89
2023-01-25T13:51:11.365Z,102187.52
2023-01-25T13:54:18.300Z,102188.02
2023-01-25T13:57:29.333Z,102187.59
2023-01-25T14:00:36.392Z,102184.12
2023-01-25T14:03:57.172Z,102184.12
2023-01-25T14:07:02.325Z,102181.88
2023-01-25T14:10:08.975Z,102180.70
2023-01-25T14:13:14.761Z,102185.61
2023-01-25T14:16:24.638Z,102184.62
2023-01-25T14:19:43.214Z,102179.46
2023-01-25T14:22:49.571Z,102185.09
2023-01-25T14:25:56.591Z,102191.04
2023-01-25T14:29:11.512Z,102182.78
2023-01-25T14:32:15.565Z,102186.49
2023-01-25T14:36:03.482Z,102185.87
2023-01-25T14:39:06.852Z,102188.31
2023-01-25T14:42:12.782Z,102181.87
2023-01-25T14:45:19.346Z,102188.08
2023-01-25T14:48:54.334Z,102180.36
2023-01-25T14:52:23.022Z,102179.82
2023-01-25T14:55:29.768Z,102186.07
2023-01-25T14:58:41.103Z,102185.53
2023-01-25T15:01:53.847Z,102192.39
2023-01-25T15:05:18.151Z,102187.42
2023-01-25T15:08:29.502Z,102184.56
2023-01-25T15:11:56.839Z,102187.42
2023-01-25T15:15:07.425Z,102185.03
2023-01-25T15:18:12.814Z,102185.53
2023-01-25T15:21:17.813Z,102186.88
2023-01-25T15:24:24.540Z,102184.22
2023-01-25T15:27:31.173Z,102189.62
2023-01-25T15:30:36.823Z,102183.41
2023-01-25T15:33:46.263Z,102182.20
2023-01-25T15:36:51.978Z,102181.82
2023-01-25T15:39:58.537Z,102176.81
2023-01-25T15:43:04.307Z,102181.89
2023-01-25T15:46:11.931Z,102182.97
2023-01-25T15:49:18.479Z,102178.92
2023-01-25T15:52:24.500Z,102177.92
2023-01-25T15:55:30.775Z,102180.47
2023-01-25T15:58:41.405Z,102185.87
2023-01-25T16:01:46.572Z,102187.22
2023-01-25T16:04:52.875Z,102185.87
2023-01-25T16:07:58.045Z,102180.62
2023-01-25T16:11:05.272Z,102182.09
2023-01-25T16:14:11.060Z,102187.17
2023-01-25T16:17:17.752Z,102192.64
2023-01-25T16:20:24.204Z,102187.94
2023-01-25T16:23:31.308Z,102196.17
2023-01-25T16:26:41.069Z,102188.82
2023-01-25T16:29:46.403Z,102188.59
2023-01-25T16:32:51.488Z,102184.59
2023-01-25T16:35:56.297Z,102187.06
2023-01-25T16:39:03.522Z,102188.27
2023-01-25T16:42:11.572Z,102185.41
2023-01-25T16:45:19.935Z,102186.14
2023-01-25T16:48:27.932Z,102189.58
2023-01-25T16:51:39.263Z,102184.22
2023-01-25T16:54:45.833Z,102182.41
2023-01-25T16:57:52.915Z,102179.63
2023-01-25T17:00:59.566Z,102181.87
2023-01-25T17:04:05.439Z,102184.56
2023-01-25T17:07:10.392Z,102193.78
2023-01-25T17:10:17.579Z,102188.70
2023-01-25T17:13:24.583Z,102192.97
2023-01-25T17:16:32.779Z,102190.05
2023-01-25T17:19:39.060Z,102189.19
2023-01-25T17:22:47.294Z,102190.34
2023-01-25T17:25:56.424Z,102183.02
2023-01-25T17:29:02.781Z,102181.91
2023-01-25T17:32:08.576Z,102182.75
2023-01-25T17:35:14.009Z,102184.88
2023-01-25T17:38:19.175Z,102182.41
2023-01-25T17:41:27.137Z,102176.59
2023-01-25T17:44:37.629Z,102180.98
2023-01-25T17:47:45.109Z,102180.25
2023-01-25T17:50:53.908Z,102172.96
2023-01-25T17:53:59.647Z,102170.27
2023-01-25T17:57:06.017Z,102166.41
2023-01-25T18:00:13.928Z,102175.27
2023-01-25T18:03:19.939Z,102171.66
2023-01-25T18:06:26.673Z,102176.66
2023-01-25T18:09:32.265Z,102178.36
2023-01-25T18:12:37.798Z,102175.08
2023-01-25T18:15:43.163Z,102165.91
2023-01-25T18:18:52.548Z,102169.88
2023-01-25T18:21:59.072Z,102173.31
2023-01-25T18:25:08.521Z,102166.71
2023-01-25T18:28:15.374Z,102162.02
2023-01-25T18:31:23.819Z,102162.81
2023-01-25T18:34:29.494Z,102154.34
2023-01-25T18:37:37.031Z,102158.27
2023-01-25T18:40:46.342Z,102158.27
2023-01-25T18:43:54.930Z,102153.53
2023-01-25T18:47:01.170Z,102152.56
2023-01-25T18:50:07.851Z,102146.39
2023-01-25T18:53:14.470Z,102144.55
2023-01-25T18:56:29.961Z,102144.05
2023-01-25T18:59:29.724Z,102144.28
2023-01-25T19:02:24.369Z,102150.88
2023-01-25T19:05:29.732Z,102146.28
2023-01-25T19:08:36.224Z,102139.27
2023-01-25T19:11:40.797Z,102134.34
2023-01-25T19:14:47.541Z,102135.98
2023-01-25T19:17:54.579Z,102132.09
2023-01-25T19:21:03.274Z,102136.88
2023-01-25T19:24:09.264Z,102123.55
2023-01-25T19:27:15.848Z,102126.09
2023-01-25T19:30:25.164Z,102116.03
2023-01-25T19:33:31.513Z,102124.42
2023-01-25T19:36:38.731Z,102112.55
2023-01-25T19:39:45.895Z,102110.00
2023-01-25T19:42:50.997Z,102100.64
2023-01-25T19:45:58.165Z,102098.59
2023-01-25T19:49:05.205Z,102102.89
2023-01-25T19:52:13.147Z,102095.42
2023-01-25T19:55:22.679Z,102082.87
2023-01-25T19:58:29.891Z,102088.34
2023-01-25T20:01:38.216Z,102088.65
2023-01-25T20:04:44.621Z,102093.66
2023-01-25T20:07:53.421Z,102096.75
2023-01-25T20:11:00.771Z,102085.38
2023-01-25T20:14:07.884Z,102088.09
2023-01-25T20:17:14.206Z,102088.16
2023-01-25T20:20:20.017Z,102085.92
2023-01-25T20:23:26.068Z,102092.36
2023-01-25T20:26:34.930Z,102088.80
2023-01-25T20:29:42.189Z,102085.72
2023-01-25T20:32:47.292Z,102091.68
2023-01-25T20:35:54.391Z,102086.36
2023-01-25T20:38:59.757Z,102093.19
2023-01-25T20:42:07.018Z,102088.75
2023-01-25T20:45:13.155Z,102085.59
2023-01-25T20:48:19.895Z,102085.59
2023-01-25T20:51:28.272Z,102091.84
2023-01-25T20:54:35.795Z,102086.44
2023-01-25T20:57:44.016Z,102088.29
2023-01-25T21:00:52.159Z,102083.28
2023-01-25T21:04:00.997Z,102077.96
2023-01-25T21:07:06.952Z,102081.63
2023-01-25T21:10:12.356Z,102075.58
2023-01-25T21:13:17.447Z,102077.16
2023-01-25T21:16:31.286Z,102080.84
2023-01-25T21:19:37.135Z,102071.40
2023-01-25T21:22:44.266Z,102073.91
2023-01-25T21:25:51.284Z,102079.15
2023-01-25T21:28:56.880Z,102072.06
2023-01-25T21:32:05.514Z,102075.26
2023-01-25T21:35:11.433Z,102074.68
2023-01-25T21:38:16.985Z,102067.89
2023-01-25T21:41:29.005Z,102068.52
2023-01-25T21:44:53.433Z,102066.94
2023-01-25T21:48:00.299Z,102073.52
2023-01-25T21:51:23.685Z,102075.83
2023-01-25T21:54:40.000Z,102062.34
2023-01-25T21:57:48.366Z,102060.58
2023-01-25T22:00:53.925Z,102065.20
2023-01-25T22:04:05.083Z,102056.77
2023-01-25T22:07:11.334Z,102058.81
2023-01-25T22:10:17.096Z,102057.45
2023-01-25T22:13:23.557Z,102053.27
2023-01-25T22:16:31.348Z,102053.83
2023-01-25T22:19:37.049Z,102050.64
2023-01-25T22:22:42.693Z,102047.28
2023-01-25T22:25:49.531Z,102052.02
2023-01-25T22:29:08.986Z,102049.72
2023-01-25T22:32:15.470Z,102047.91
2023-01-25T22:35:23.024Z,102043.47
2023-01-25T22:38:27.998Z,102042.36
2023-01-25T22:41:35.929Z,102051.64
2023-01-25T22:44:42.161Z,102034.04
2023-01-25T22:47:49.431Z,102033.11
2023-01-25T22:50:55.069Z,102026.22
2023-01-25T22:54:00.657Z,102032.41
2023-01-25T22:57:07.799Z,102026.45
2023-01-25T23:00:12.742Z,102027.25
2023-01-25T23:03:18.241Z,102022.25
2023-01-25T23:06:26.484Z,102028.06
2023-01-25T23:09:31.654Z,102025.44
2023-01-25T23:12:36.529Z,102018.85
2023-01-25T23:15:43.596Z,102016.36
2023-01-25T23:19:00.428Z,102013.54
2023-01-25T23:22:09.878Z,102019.24
2023-01-25T23:25:16.943Z,102012.89
2023-01-25T23:28:22.233Z,102015.12
2023-01-25T23:31:31.552Z,102017.34
2023-01-25T23:34:39.304Z,102019.63
2023-01-25T23:37:44.136Z,102014.31
2023-01-25T23:40:50.891Z,102018.20
2023-01-25T23:43:55.696Z,102012.58
2023-01-25T23:47:02.139Z,102011.38
2023-01-25T23:50:08.332Z,102008.77
2023-01-25T23:53:14.415Z,102010.97
2023-01-25T23:56:26.476Z,102008.14
2023-01-25T23:59:32.640Z,102003.68
